Time;durP1;ratioP1;P1;durP2;ratioP2;P2;SDS_P1;SDS_P2;PMS_P1;PMS_P2;Temp;Humidity;BMP_temperature;BMP_pressure;BME280_temperature;BME280_humidity;BME280_pressure;Samples;Min_cycle;Max_cycle;Signal;HPM_P1;HPM_P2
2023/04/16 00:02:21;;;;;;;;;;;;;;;15.31;46.17;99176.66;5112248;28;19999;-43
2023/04/16 00:04:46;;;;;;;;;;;;;;;15.50;46.04;99173.66;5112207;28;19916;-43
2023/04/16 00:07:11;;;;;;;;;;;;;;;15.58;45.54;99179.41;5112096;28;19912;-43
2023/04/16 00:09:37;;;;;;;;;;;;;;;15.72;44.88;99176.34;5112099;28;20419;-43
2023/04/16 00:12:02;;;;;;;;;;;;;;;15.85;44.74;99177.88;5112119;28;19935;-43
2023/04/16 00:14:28;;;;;;;;;;;;;;;15.90;44.97;99165.31;5111923;28;19916;-42
2023/04/16 00:16:53;;;;;;;;;;;;;;;15.92;45.23;99171.25;5111956;28;20311;-42
2023/04/16 00:19:18;;;;;;;;;;;;;;;16.02;44.96;99159.78;5111933;28;19943;-43
2023/04/16 00:21:44;;;;;;;;;;;;;;;16.01;45.04;99174.25;5111950;28;20002;-43
2023/04/16 00:24:09;;;;;;;;;;;;;;;15.89;45.19;99173.63;5111875;28;20346;-42
2023/04/16 00:26:34;;;;;;;;;;;;;;;15.97;44.85;99173.16;5111804;28;19997;-43
2023/04/16 00:29:00;;;;;;;;;;;;;;;15.99;45.86;99171.03;5112083;28;19912;-42
2023/04/16 00:31:26;;;;;;;;;;;;;;;16.06;45.90;99181.56;5110430;28;20348;-42
2023/04/16 00:33:52;;;;;;;;;;;;;;;16.00;45.41;99184.19;5111631;28;19919;-43
2023/04/16 00:36:17;;;;;;;;;;;;;;;16.01;45.57;99188.50;5111665;28;19912;-43
2023/04/16 00:38:42;;;;;;;;;;;;;;;15.83;47.10;99192.31;5111368;28;20349;-43
2023/04/16 00:41:08;;;;;;;;;;;;;;;16.01;46.35;99190.38;5111807;28;19938;-43
2023/04/16 00:43:33;;;;;;;;;;;;;;;15.87;45.67;99195.31;5111466;28;19955;-43
2023/04/16 00:45:58;;;;;;;;;;;;;;;15.96;45.50;99201.88;5111563;28;19920;-43
2023/04/16 00:48:26;;;;;;;;;;;;;;;15.99;45.79;99201.38;5111556;28;20386;-43
2023/04/16 00:50:54;;;;;;;;;;;;;;;16.06;46.13;99195.78;5111692;28;19912;-42
2023/04/16 00:53:19;;;;;;;;;;;;;;;15.94;46.40;99195.94;5111574;28;19949;-43
2023/04/16 00:55:44;;;;;;;;;;;;;;;15.93;46.09;99193.50;5111575;28;19912;-43
2023/04/16 00:58:10;;;;;;;;;;;;;;;15.97;46.40;99194.63;5111233;28;20471;-44
2023/04/16 01:00:36;;;;;;;;;;;;;;;15.99;46.12;99185.28;5110075;28;19923;-41
2023/04/16 01:03:01;;;;;;;;;;;;;;;16.13;46.13;99192.94;5111228;28;19918;-42
2023/04/16 01:05:26;;;;;;;;;;;;;;;16.04;45.97;99187.19;5111382;28;20425;-44
2023/04/16 01:07:51;;;;;;;;;;;;;;;16.14;46.25;99178.41;5111295;28;19935;-42
2023/04/16 01:10:17;;;;;;;;;;;;;;;15.96;47.07;99182.28;5111171;28;19919;-42
2023/04/16 01:12:42;;;;;;;;;;;;;;;15.93;46.81;99177.41;5111348;28;19990;-43
2023/04/16 01:15:08;;;;;;;;;;;;;;;15.92;46.36;99184.66;5111330;28;19916;-43
2023/04/16 01:17:33;;;;;;;;;;;;;;;16.00;46.59;99183.41;5111021;28;19918;-42
2023/04/16 01:19:59;;;;;;;;;;;;;;;16.01;47.06;99188.50;5111262;28;19922;-44
2023/04/16 01:22:25;;;;;;;;;;;;;;;16.00;46.64;99189.56;5111188;28;20415;-43
2023/04/16 01:24:50;;;;;;;;;;;;;;;16.15;46.00;99188.09;5111346;28;20018;-42
2023/04/16 01:27:15;;;;;;;;;;;;;;;16.01;46.75;99193.88;5111131;28;20386;-42
2023/04/16 01:29:41;;;;;;;;;;;;;;;16.02;47.29;99192.00;5110958;28;20295;-42
2023/04/16 01:32:06;;;;;;;;;;;;;;;16.09;46.81;99197.16;5111024;28;19923;-43
2023/04/16 01:34:31;;;;;;;;;;;;;;;15.99;46.60;99190.63;5111123;28;20314;-42
2023/04/16 01:36:57;;;;;;;;;;;;;;;15.99;46.21;99189.81;5111055;28;19969;-44
2023/04/16 01:39:22;;;;;;;;;;;;;;;16.15;46.66;99185.44;5114107;28;19994;-43
2023/04/16 01:41:47;;;;;;;;;;;;;;;15.98;46.02;99185.53;5115152;28;19918;-43
2023/04/16 01:44:13;;;;;;;;;;;;;;;16.00;46.27;99186.88;5114899;28;20410;-42
2023/04/16 01:46:38;;;;;;;;;;;;;;;15.95;47.00;99186.00;5115028;28;19922;-43
2023/04/16 01:49:04;;;;;;;;;;;;;;;15.99;47.15;99187.97;5115121;28;20379;-42
2023/04/16 01:51:30;;;;;;;;;;;;;;;16.13;46.43;99184.88;5114743;28;19916;-43
2023/04/16 01:53:57;;;;;;;;;;;;;;;16.15;47.08;99182.75;5114711;28;20057;-43
2023/04/16 01:56:22;;;;;;;;;;;;;;;16.11;47.02;99184.31;5114983;28;19969;-43
2023/04/16 01:58:47;;;;;;;;;;;;;;;16.04;47.53;99179.13;5114926;28;20381;-44
2023/04/16 02:01:13;;;;;;;;;;;;;;;16.09;47.14;99165.78;5114390;28;19912;-44
2023/04/16 02:03:38;;;;;;;;;;;;;;;15.99;47.37;99163.81;5114653;28;19927;-43
2023/04/16 02:06:04;;;;;;;;;;;;;;;16.11;47.70;99170.91;5114637;28;19916;-43
2023/04/16 02:08:29;;;;;;;;;;;;;;;16.04;47.16;99165.72;5114297;28;19912;-43
2023/04/16 02:10:55;;;;;;;;;;;;;;;16.17;46.50;99169.88;5114440;28;19968;-43
2023/04/16 02:13:20;;;;;;;;;;;;;;;16.12;47.15;99176.00;5114395;28;20049;-43
2023/04/16 02:15:49;;;;;;;;;;;;;;;16.02;47.52;99171.34;5114089;28;19912;-44
2023/04/16 02:18:15;;;;;;;;;;;;;;;16.19;46.98;99171.22;5114188;28;19943;-43
2023/04/16 02:20:41;;;;;;;;;;;;;;;16.13;47.26;99171.44;5114377;28;19959;-43
2023/04/16 02:23:06;;;;;;;;;;;;;;;15.95;47.04;99178.75;5114359;28;20314;-44
2023/04/16 02:25:32;;;;;;;;;;;;;;;15.94;47.23;99177.16;5114310;28;20371;-43
2023/04/16 02:27:57;;;;;;;;;;;;;;;16.02;47.22;99174.00;5114392;28;20264;-43
2023/04/16 02:30:23;;;;;;;;;;;;;;;15.86;47.57;99179.47;5114392;28;19911;-43
2023/04/16 02:32:48;;;;;;;;;;;;;;;15.86;47.96;99184.84;5114011;28;19980;-43
2023/04/16 02:35:13;;;;;;;;;;;;;;;15.63;47.69;99181.31;5114030;28;19919;-44
2023/04/16 02:37:39;;;;;;;;;;;;;;;15.40;48.78;99177.03;5113880;28;19912;-43
2023/04/16 02:40:05;;;;;;;;;;;;;;;15.64;48.27;99186.44;5113718;28;19919;-42
2023/04/16 02:42:30;;;;;;;;;;;;;;;15.58;48.04;99179.41;5114021;28;20440;-43
2023/04/16 02:44:55;;;;;;;;;;;;;;;15.62;48.40;99185.09;5114086;28;19959;-44
2023/04/16 02:47:21;;;;;;;;;;;;;;;15.33;48.87;99182.59;5113837;28;20010;-43
2023/04/16 02:49:46;;;;;;;;;;;;;;;15.40;48.64;99183.22;5113251;28;20356;-43
2023/04/16 02:52:11;;;;;;;;;;;;;;;15.61;47.97;99183.44;5113663;28;19912;-43
2023/04/16 02:54:37;;;;;;;;;;;;;;;15.45;48.07;99185.94;5113736;28;20020;-44
2023/04/16 02:57:02;;;;;;;;;;;;;;;15.19;48.60;99190.19;5113646;28;19912;-43
2023/04/16 02:59:27;;;;;;;;;;;;;;;15.20;48.34;99186.44;5113489;28;20018;-44
2023/04/16 03:01:52;;;;;;;;;;;;;;;15.21;48.23;99197.94;5113363;28;20359;-43
2023/04/16 03:04:18;;;;;;;;;;;;;;;15.33;48.42;99195.19;5113330;28;19920;-43
2023/04/16 03:06:43;;;;;;;;;;;;;;;15.45;47.96;99193.19;5113198;28;20359;-42
2023/04/16 03:09:08;;;;;;;;;;;;;;;15.43;48.30;99190.75;5113366;28;19916;-42
2023/04/16 03:11:34;;;;;;;;;;;;;;;15.64;47.00;99189.13;5113509;28;19912;-43
2023/04/16 03:13:59;;;;;;;;;;;;;;;15.49;48.61;99188.94;5113117;28;20339;-44
2023/04/16 03:16:25;;;;;;;;;;;;;;;15.37;48.63;99197.09;5113273;28;19912;-43
2023/04/16 03:18:50;;;;;;;;;;;;;;;15.53;47.84;99194.63;5112861;28;19912;-43
2023/04/16 03:21:15;;;;;;;;;;;;;;;15.58;47.83;99198.19;5113021;28;19912;-41
2023/04/16 03:23:40;;;;;;;;;;;;;;;15.44;47.52;99173.63;5113179;28;20014;-42
2023/04/16 03:26:06;;;;;;;;;;;;;;;15.31;49.18;99191.94;5113056;28;19923;-42
2023/04/16 03:28:31;;;;;;;;;;;;;;;15.34;49.04;99196.78;5113012;27;19912;-42
2023/04/16 03:30:56;;;;;;;;;;;;;;;15.24;48.43;99200.16;5112995;28;19973;-43
2023/04/16 03:33:22;;;;;;;;;;;;;;;15.31;48.29;99198.09;5112867;28;19911;-42
2023/04/16 03:35:53;;;;;;;;;;;;;;;15.37;48.12;99205.16;5113155;28;19973;-41
2023/04/16 03:38:18;;;;;;;;;;;;;;;15.29;47.69;99207.44;5112927;28;20454;-37
2023/04/16 03:40:44;;;;;;;;;;;;;;;15.12;47.89;99219.00;5113029;28;19942;-37
2023/04/16 03:43:09;;;;;;;;;;;;;;;14.97;49.02;99200.84;5112765;28;20010;-37
2023/04/16 03:45:34;;;;;;;;;;;;;;;15.18;49.10;99214.53;5112890;27;19976;-37
2023/04/16 03:48:00;;;;;;;;;;;;;;;15.18;48.70;99207.31;5112660;28;19973;-37
2023/04/16 03:50:25;;;;;;;;;;;;;;;15.23;48.93;99222.63;5112743;28;19911;-38
2023/04/16 03:52:50;;;;;;;;;;;;;;;15.23;49.37;99228.00;5112195;28;19911;-38
2023/04/16 03:55:15;;;;;;;;;;;;;;;15.27;48.99;99218.44;5112368;28;19916;-37
2023/04/16 03:57:41;;;;;;;;;;;;;;;15.23;48.64;99223.47;5112323;28;20484;-37
2023/04/16 04:00:06;;;;;;;;;;;;;;;14.87;49.50;99224.81;5112048;28;19919;-37
2023/04/16 04:02:32;;;;;;;;;;;;;;;14.74;50.01;99225.94;5111785;28;19916;-37
2023/04/16 04:04:57;;;;;;;;;;;;;;;14.81;49.70;99223.91;5112148;28;20375;-37
2023/04/16 04:07:22;;;;;;;;;;;;;;;14.39;50.62;99229.63;5112034;28;20000;-37
2023/04/16 04:09:47;;;;;;;;;;;;;;;14.68;50.26;99226.91;5112175;28;20302;-37
2023/04/16 04:12:13;;;;;;;;;;;;;;;14.78;50.37;99226.25;5112154;28;19912;-37
2023/04/16 04:14:38;;;;;;;;;;;;;;;15.00;49.93;99229.00;5112239;28;19963;-37
2023/04/16 04:17:07;;;;;;;;;;;;;;;15.13;49.53;99227.84;5111781;28;19912;-38
2023/04/16 04:19:32;;;;;;;;;;;;;;;15.21;49.10;99233.63;5112016;28;20394;-37
2023/04/16 04:21:58;;;;;;;;;;;;;;;15.38;48.80;99224.72;5111850;28;19916;-36
2023/04/16 04:24:23;;;;;;;;;;;;;;;15.22;49.73;99229.88;5112064;28;20034;-36
2023/04/16 04:26:48;;;;;;;;;;;;;;;15.30;49.46;99234.00;5111029;28;19977;-36
2023/04/16 04:29:14;;;;;;;;;;;;;;;15.11;50.49;99236.13;5111076;28;19911;-36
2023/04/16 04:31:39;;;;;;;;;;;;;;;15.11;50.97;99238.81;5111090;28;19923;-36
2023/04/16 04:34:05;;;;;;;;;;;;;;;15.24;50.03;99245.72;5111183;28;19919;-36
2023/04/16 04:36:31;;;;;;;;;;;;;;;15.31;50.17;99245.56;5111029;28;19912;-37
2023/04/16 04:38:56;;;;;;;;;;;;;;;15.15;50.30;99231.91;5111039;28;19916;-37
2023/04/16 04:41:21;;;;;;;;;;;;;;;15.11;50.22;99228.09;5111156;28;20019;-37
2023/04/16 04:43:47;;;;;;;;;;;;;;;15.17;49.84;99227.13;5110696;28;20387;-37
2023/04/16 04:46:12;;;;;;;;;;;;;;;15.28;49.68;99229.94;5111010;28;19916;-37
2023/04/16 04:48:37;;;;;;;;;;;;;;;15.27;49.81;99231.00;5110573;28;20013;-37
2023/04/16 04:51:03;;;;;;;;;;;;;;;15.32;49.80;99228.41;5110790;28;19918;-37
2023/04/16 04:53:28;;;;;;;;;;;;;;;15.20;49.95;99236.53;5110792;28;19961;-37
2023/04/16 04:55:54;;;;;;;;;;;;;;;15.40;49.58;99220.75;5110406;28;19919;-36
2023/04/16 04:58:19;;;;;;;;;;;;;;;15.48;49.03;99218.69;5110536;28;20401;-37
2023/04/16 05:00:45;;;;;;;;;;;;;;;15.58;48.61;99226.88;5110483;28;19912;-37
2023/04/16 05:03:11;;;;;;;;;;;;;;;15.54;49.29;99236.47;5110334;28;19943;-36
2023/04/16 05:05:36;;;;;;;;;;;;;;;15.64;49.31;99242.75;5110919;28;19942;-36
2023/04/16 05:08:02;;;;;;;;;;;;;;;15.73;50.01;99237.81;5110494;28;20362;-36
2023/04/16 05:10:27;;;;;;;;;;;;;;;15.74;50.74;99244.00;5109264;28;19912;-36
2023/04/16 05:12:52;;;;;;;;;;;;;;;15.80;50.67;99243.81;5109366;28;20377;-37
2023/04/16 05:15:18;;;;;;;;;;;;;;;16.01;49.79;99244.03;5110485;28;19960;-37
2023/04/16 05:17:43;;;;;;;;;;;;;;;16.06;49.84;99244.09;5110547;28;19912;-37
2023/04/16 05:20:08;;;;;;;;;;;;;;;16.08;50.35;99252.72;5110239;28;19945;-37
2023/04/16 05:22:34;;;;;;;;;;;;;;;16.27;50.94;99253.19;5110232;28;19912;-37
2023/04/16 05:24:59;;;;;;;;;;;;;;;16.46;48.98;99253.63;5044008;28;1856768;-37
2023/04/16 05:27:24;;;;;;;;;;;;;;;16.50;48.52;99253.94;5110905;28;19915;-37
2023/04/16 05:29:49;;;;;;;;;;;;;;;16.39;48.38;99245.81;5110664;28;20402;-37
2023/04/16 05:32:15;;;;;;;;;;;;;;;16.63;48.41;99256.22;5110904;28;19911;-38
2023/04/16 05:34:40;;;;;;;;;;;;;;;16.62;48.43;99259.97;5110885;28;19960;-37
2023/04/16 05:37:05;;;;;;;;;;;;;;;16.84;47.82;99256.44;5110927;28;19919;-36
2023/04/16 05:39:31;;;;;;;;;;;;;;;16.97;48.24;99258.69;5110902;28;20363;-36
2023/04/16 05:41:56;;;;;;;;;;;;;;;16.97;47.73;99259.50;5110839;28;19916;-36
2023/04/16 05:44:21;;;;;;;;;;;;;;;16.61;49.03;99261.84;5110926;28;20352;-37
2023/04/16 05:46:46;;;;;;;;;;;;;;;17.41;47.30;99260.31;5110865;28;19959;-37
2023/04/16 05:49:12;;;;;;;;;;;;;;;17.83;46.27;99249.50;5110848;28;19911;-37
2023/04/16 05:51:37;;;;;;;;;;;;;;;17.68;46.18;99246.75;5110781;28;19912;-37
2023/04/16 05:54:02;;;;;;;;;;;;;;;17.63;47.52;99260.16;5110758;28;20018;-37
2023/04/16 05:56:27;;;;;;;;;;;;;;;18.49;44.89;99248.09;5110948;28;19911;-38
2023/04/16 05:58:53;;;;;;;;;;;;;;;18.95;43.73;99251.63;5110661;28;19911;-38
2023/04/16 06:01:18;;;;;;;;;;;;;;;19.48;40.83;99255.88;5110382;28;20031;-37
2023/04/16 06:03:44;;;;;;;;;;;;;;;20.35;39.76;99254.69;5110607;28;20014;-37
2023/04/16 06:06:10;;;;;;;;;;;;;;;20.53;38.85;99262.16;5110908;28;19923;-37
2023/04/16 06:08:35;;;;;;;;;;;;;;;21.46;36.48;99257.63;5110270;28;20446;-37
2023/04/16 06:11:00;;;;;;;;;;;;;;;21.69;36.81;99252.50;5110672;28;19943;-37
2023/04/16 06:13:25;;;;;;;;;;;;;;;21.93;35.90;99263.28;5110739;28;19972;-36
2023/04/16 06:15:51;;;;;;;;;;;;;;;22.39;34.95;99241.03;5110448;28;19911;-37
2023/04/16 06:18:16;;;;;;;;;;;;;;;22.80;34.90;99228.72;5110472;28;20355;-36
2023/04/16 06:20:41;;;;;;;;;;;;;;;22.37;35.44;99235.09;5110609;28;20082;-36
2023/04/16 06:23:06;;;;;;;;;;;;;;;22.18;34.85;99234.25;5110345;28;19912;-36
2023/04/16 06:25:32;;;;;;;;;;;;;;;23.08;34.58;99231.56;5113065;28;20029;-36
2023/04/16 06:27:57;;;;;;;;;;;;;;;23.78;32.95;99234.03;5114115;28;19912;-36
2023/04/16 06:30:22;;;;;;;;;;;;;;;23.43;33.26;99230.84;5113826;27;20318;-36
2023/04/16 06:32:48;;;;;;;;;;;;;;;24.14;32.35;99219.66;5113873;27;19988;-36
2023/04/16 06:35:13;;;;;;;;;;;;;;;24.25;31.94;99225.66;5114114;28;19919;-36
2023/04/16 06:37:38;;;;;;;;;;;;;;;24.75;31.43;99228.31;5114310;28;19916;-36
2023/04/16 06:40:04;;;;;;;;;;;;;;;25.31;30.74;99225.28;5114260;28;19923;-36
2023/04/16 06:42:29;;;;;;;;;;;;;;;26.24;29.72;99235.16;5114066;28;19998;-36
2023/04/16 06:44:55;;;;;;;;;;;;;;;25.46;30.07;99238.47;5114064;28;20399;-37
2023/04/16 06:47:20;;;;;;;;;;;;;;;25.99;29.08;99241.34;5113838;28;19920;-37
2023/04/16 06:49:45;;;;;;;;;;;;;;;26.28;28.97;99247.00;5114176;28;19912;-37
2023/04/16 06:52:11;;;;;;;;;;;;;;;26.15;29.21;99245.22;5113984;28;19994;-37
2023/04/16 06:54:36;;;;;;;;;;;;;;;26.65;29.18;99242.03;5113751;28;19912;-36
2023/04/16 06:57:01;;;;;;;;;;;;;;;27.60;27.62;99239.38;5113877;28;19934;-36
2023/04/16 06:59:27;;;;;;;;;;;;;;;27.60;27.54;99236.66;5113825;28;20387;-36
2023/04/16 07:01:52;;;;;;;;;;;;;;;28.51;26.46;99241.69;5113647;28;20357;-38
2023/04/16 07:04:17;;;;;;;;;;;;;;;26.07;28.83;99246.84;5113893;28;19915;-37
2023/04/16 07:06:43;;;;;;;;;;;;;;;27.70;26.99;99236.28;5113418;28;19984;-35
2023/04/16 07:09:08;;;;;;;;;;;;;;;26.93;27.20;99236.22;5113805;28;20230;-36
2023/04/16 07:11:33;;;;;;;;;;;;;;;26.88;27.28;99234.47;5113451;28;19915;-37
2023/04/16 07:13:58;;;;;;;;;;;;;;;26.33;28.19;99237.84;5113496;28;19916;-37
2023/04/16 07:16:24;;;;;;;;;;;;;;;26.18;28.74;99232.88;5113347;28;19994;-36
2023/04/16 07:18:49;;;;;;;;;;;;;;;26.02;29.09;99235.28;5113708;28;19950;-36
2023/04/16 07:21:14;;;;;;;;;;;;;;;27.02;27.79;99228.03;5113543;27;20337;-36
2023/04/16 07:23:40;;;;;;;;;;;;;;;27.23;27.37;99228.13;5113628;28;20408;-36
2023/04/16 07:26:05;;;;;;;;;;;;;;;27.69;27.21;99231.94;5113193;28;19924;-36
2023/04/16 07:28:30;;;;;;;;;;;;;;;28.06;26.25;99227.56;5112927;28;19919;-36
2023/04/16 07:30:56;;;;;;;;;;;;;;;27.35;27.09;99222.00;5113219;28;20445;-36
2023/04/16 07:33:21;;;;;;;;;;;;;;;27.28;27.81;99222.50;5113059;28;19918;-37
2023/04/16 07:35:46;;;;;;;;;;;;;;;27.84;27.59;99223.16;5112083;28;19993;-36
2023/04/16 07:38:12;;;;;;;;;;;;;;;26.63;28.19;99221.66;5113004;28;20006;-36
2023/04/16 07:40:37;;;;;;;;;;;;;;;26.39;28.32;99224.84;5112982;28;19961;-36
2023/04/16 07:43:02;;;;;;;;;;;;;;;25.60;29.68;99218.50;5112729;28;19915;-36
2023/04/16 07:45:28;;;;;;;;;;;;;;;25.31;29.65;99215.19;5113006;28;19912;-36
2023/04/16 07:47:53;;;;;;;;;;;;;;;26.00;29.02;99219.22;5112787;27;19996;-36
2023/04/16 07:50:18;;;;;;;;;;;;;;;25.51;29.56;99213.00;5112582;28;19911;-36
2023/04/16 07:52:44;;;;;;;;;;;;;;;25.65;29.33;99210.97;5112661;28;19979;-37
2023/04/16 07:55:09;;;;;;;;;;;;;;;25.49;29.66;99209.78;5112513;28;19969;-36
2023/04/16 07:57:35;;;;;;;;;;;;;;;23.85;32.37;99209.16;5112399;28;19912;-36
2023/04/16 08:00:09;;;;;;;;;;;;;;;23.85;32.00;99208.34;5112660;28;19912;-36
2023/04/16 08:02:35;;;;;;;;;;;;;;;23.73;32.08;99209.63;5112602;28;19919;-36
2023/04/16 08:05:00;;;;;;;;;;;;;;;24.01;31.25;99206.91;5112334;28;19916;-36
2023/04/16 08:07:25;;;;;;;;;;;;;;;24.61;31.31;99210.44;5112424;28;20330;-36
2023/04/16 08:09:51;;;;;;;;;;;;;;;25.75;29.56;99212.59;5112322;28;19972;-36
2023/04/16 08:12:17;;;;;;;;;;;;;;;25.47;29.92;99207.38;5110664;28;19923;-36
2023/04/16 08:14:42;;;;;;;;;;;;;;;24.82;31.46;99214.25;5112257;28;19919;-36
2023/04/16 08:17:08;;;;;;;;;;;;;;;24.51;32.00;99211.47;5112204;28;20007;-36
2023/04/16 08:19:33;;;;;;;;;;;;;;;24.56;31.52;99212.19;5112022;28;20379;-37
2023/04/16 08:21:58;;;;;;;;;;;;;;;24.00;32.45;99227.81;5112080;28;19959;-36
2023/04/16 08:24:24;;;;;;;;;;;;;;;24.15;32.55;99220.47;5111818;28;19919;-36
2023/04/16 08:26:49;;;;;;;;;;;;;;;23.66;33.87;99230.16;5112135;28;20015;-37
2023/04/16 08:29:15;;;;;;;;;;;;;;;23.81;34.28;99219.00;5111787;28;19912;-36
2023/04/16 08:31:40;;;;;;;;;;;;;;;24.59;32.40;99217.00;5112026;28;19915;-36
2023/04/16 08:34:05;;;;;;;;;;;;;;;23.33;33.84;99220.22;5111932;28;19912;-36
2023/04/16 08:36:31;;;;;;;;;;;;;;;22.49;35.33;99221.09;5111722;28;19916;-36
2023/04/16 08:38:56;;;;;;;;;;;;;;;22.32;35.90;99221.63;5112008;28;20006;-37
2023/04/16 08:41:22;;;;;;;;;;;;;;;22.62;35.42;99214.91;5111698;28;19969;-36
2023/04/16 08:43:49;;;;;;;;;;;;;;;21.90;36.89;99215.13;5111661;28;19923;-37
2023/04/16 08:46:16;;;;;;;;;;;;;;;21.68;37.68;99215.66;5111700;28;20348;-36
2023/04/16 08:48:46;;;;;;;;;;;;;;;22.33;36.94;99209.69;5111514;28;20002;-36
2023/04/16 08:51:12;;;;;;;;;;;;;;;22.89;35.69;99207.16;5111672;28;19912;-37
2023/04/16 08:54:00;;;;;;;;;;;;;;;22.29;36.31;99197.00;5111546;28;20382;-37
2023/04/16 08:56:26;;;;;;;;;;;;;;;22.88;35.24;99202.81;5111304;28;19923;-37
2023/04/16 08:58:53;;;;;;;;;;;;;;;23.35;34.56;99190.06;5111424;28;19911;-37
2023/04/16 09:01:19;;;;;;;;;;;;;;;23.86;34.36;99190.94;5111468;28;19912;-35
2023/04/16 09:03:47;;;;;;;;;;;;;;;23.51;34.99;99174.25;5111553;28;19977;-37
2023/04/16 09:06:13;;;;;;;;;;;;;;;23.91;34.71;99178.06;5111683;28;19915;-36
2023/04/16 09:08:39;;;;;;;;;;;;;;;23.99;34.55;99169.19;5111167;28;19941;-36
2023/04/16 09:11:05;;;;;;;;;;;;;;;24.83;33.73;99166.91;5111078;28;19953;-37
2023/04/16 09:13:30;;;;;;;;;;;;;;;24.85;33.06;99161.94;5111521;28;19999;-36
2023/04/16 09:15:56;;;;;;;;;;;;;;;24.85;33.06;99153.00;5111359;28;19918;-36
2023/04/16 09:18:22;;;;;;;;;;;;;;;24.52;31.49;99151.38;5111049;28;19951;-36
2023/04/16 09:20:47;;;;;;;;;;;;;;;24.42;31.25;99156.22;5110972;28;19920;-36
2023/04/16 09:23:13;;;;;;;;;;;;;;;23.91;32.10;99150.88;5111172;28;19915;-37
2023/04/16 09:25:38;;;;;;;;;;;;;;;24.57;30.81;99145.78;5111074;28;20011;-36
2023/04/16 09:28:04;;;;;;;;;;;;;;;25.20;30.51;99148.47;5111253;28;19919;-37
2023/04/16 09:30:29;;;;;;;;;;;;;;;25.66;30.53;99144.44;5111341;28;20010;-37
2023/04/16 09:33:15;;;;;;;;;;;;;;;25.79;29.44;99152.81;5111384;28;20393;-37
2023/04/16 09:35:50;;;;;;;;;;;;;;;25.00;30.33;99138.97;5111328;28;19922;-37
2023/04/16 09:38:16;;;;;;;;;;;;;;;24.51;30.18;99140.78;5111196;28;20291;-36
2023/04/16 09:40:41;;;;;;;;;;;;;;;24.58;29.33;99139.25;5111249;28;19912;-35
2023/04/16 09:43:10;;;;;;;;;;;;;;;23.39;32.10;99137.56;5110771;28;19911;-36
2023/04/16 09:45:56;;;;;;;;;;;;;;;23.63;31.97;99133.81;5111229;28;19966;-36
2023/04/16 09:48:28;;;;;;;;;;;;;;;22.77;33.67;99148.78;5110865;28;19912;-36
2023/04/16 09:50:54;;;;;;;;;;;;;;;22.44;33.90;99148.78;5111122;28;20359;-37
2023/04/16 09:53:24;;;;;;;;;;;;;;;23.00;33.01;99136.13;5110866;28;19996;-36
2023/04/16 09:55:49;;;;;;;;;;;;;;;22.83;32.78;99130.50;5110517;28;20373;-35
2023/04/16 09:58:17;;;;;;;;;;;;;;;22.27;33.27;99134.16;5111369;28;19911;-36
2023/04/16 10:00:42;;;;;;;;;;;;;;;22.22;33.60;99125.00;5114365;28;19912;-36
2023/04/16 10:03:07;;;;;;;;;;;;;;;23.84;31.42;99120.63;5114799;28;19918;-36
2023/04/16 10:05:33;;;;;;;;;;;;;;;23.64;31.75;99132.69;5114887;28;19969;-37
2023/04/16 10:07:59;;;;;;;;;;;;;;;23.55;32.40;99138.06;5114934;27;19919;-37
2023/04/16 10:10:25;;;;;;;;;;;;;;;23.42;31.71;99142.38;5114792;28;19911;-37
2023/04/16 10:12:50;;;;;;;;;;;;;;;22.72;32.99;99134.50;5114802;28;20481;-37
2023/04/16 10:15:15;;;;;;;;;;;;;;;23.55;32.34;99123.66;5114555;28;19999;-36
2023/04/16 10:17:41;;;;;;;;;;;;;;;23.19;33.29;99122.50;5114304;28;20002;-35
2023/04/16 10:20:07;;;;;;;;;;;;;;;24.64;31.38;99122.81;5114738;28;19915;-36
2023/04/16 10:22:32;;;;;;;;;;;;;;;24.23;31.40;99115.63;5114510;28;20383;-36
2023/04/16 10:24:58;;;;;;;;;;;;;;;24.82;31.09;99121.75;5114478;28;20353;-36
2023/04/16 10:27:25;;;;;;;;;;;;;;;25.20;30.57;99123.19;5114279;28;20015;-37
2023/04/16 10:29:50;;;;;;;;;;;;;;;25.11;30.59;99114.97;5114472;28;19916;-36
2023/04/16 10:32:17;;;;;;;;;;;;;;;24.31;32.00;99104.84;5114244;28;20259;-36
2023/04/16 10:34:42;;;;;;;;;;;;;;;24.88;31.63;99106.09;5114332;28;19912;-36
2023/04/16 10:37:07;;;;;;;;;;;;;;;24.89;31.71;99100.34;5114143;28;19931;-37
2023/04/16 10:39:36;;;;;;;;;;;;;;;25.28;30.45;99104.16;5113928;28;19916;-37
2023/04/16 10:42:08;;;;;;;;;;;;;;;23.56;33.62;99101.63;5112669;28;19961;-35
2023/04/16 10:44:33;;;;;;;;;;;;;;;24.49;32.47;99097.56;5113564;28;20456;-36
2023/04/16 10:46:59;;;;;;;;;;;;;;;24.13;32.57;99108.53;5114168;28;19916;-37
2023/04/16 10:49:25;;;;;;;;;;;;;;;23.83;33.55;99101.91;5114094;28;19912;-36
2023/04/16 10:51:55;;;;;;;;;;;;;;;23.88;33.46;99109.94;5113504;28;19961;-37
2023/04/16 10:54:25;;;;;;;;;;;;;;;23.22;34.76;99108.31;5113883;28;19915;-38
2023/04/16 10:56:51;;;;;;;;;;;;;;;22.83;35.21;99100.66;5113880;28;19923;-36
2023/04/16 10:59:19;;;;;;;;;;;;;;;23.56;33.83;99103.56;5113902;28;19964;-36
2023/04/16 11:01:46;;;;;;;;;;;;;;;23.43;34.45;99099.75;5113821;28;19922;-36
2023/04/16 11:04:20;;;;;;;;;;;;;;;24.61;32.35;99101.66;5113713;28;19916;-35
2023/04/16 11:07:04;;;;;;;;;;;;;;;24.51;32.60;99092.66;5113783;28;20354;-36
2023/04/16 11:09:46;;;;;;;;;;;;;;;24.65;32.49;99103.44;5113698;28;19942;-37
2023/04/16 11:12:13;;;;;;;;;;;;;;;24.42;33.08;99088.25;5113550;28;19913;-36
2023/04/16 11:14:40;;;;;;;;;;;;;;;23.49;34.68;99103.16;5113629;28;20329;-36
2023/04/16 11:17:05;;;;;;;;;;;;;;;24.10;34.05;99092.84;5113482;28;19955;-36
2023/04/16 11:19:30;;;;;;;;;;;;;;;24.27;33.75;99090.22;5113189;28;19946;-37
2023/04/16 11:21:56;;;;;;;;;;;;;;;23.80;35.25;99085.13;5113355;28;19912;-37
2023/04/16 11:24:21;;;;;;;;;;;;;;;23.47;36.42;99079.03;5113066;28;20010;-37
2023/04/16 11:26:49;;;;;;;;;;;;;;;23.39;37.04;99068.91;5113345;28;19949;-36
2023/04/16 11:29:15;;;;;;;;;;;;;;;24.22;35.72;99074.06;5113160;28;19931;-37
2023/04/16 11:31:40;;;;;;;;;;;;;;;23.23;37.80;99065.72;5113184;28;19915;-36
2023/04/16 11:34:07;;;;;;;;;;;;;;;23.93;37.18;99067.16;5113267;28;19919;-36
2023/04/16 11:36:50;;;;;;;;;;;;;;;24.03;37.17;99055.25;5113036;28;20401;-34
2023/04/16 11:39:15;;;;;;;;;;;;;;;24.46;37.12;99051.94;5112940;28;19953;-35
2023/04/16 11:41:44;;;;;;;;;;;;;;;24.14;37.96;99039.47;5113034;28;19911;-36
2023/04/16 11:44:16;;;;;;;;;;;;;;;23.57;39.91;99034.53;5113042;28;19912;-36
2023/04/16 11:46:41;;;;;;;;;;;;;;;23.73;39.65;99026.88;5113090;28;19923;-36
2023/04/16 11:49:06;;;;;;;;;;;;;;;23.79;39.65;99020.22;5112795;28;19912;-36
2023/04/16 11:51:32;;;;;;;;;;;;;;;23.81;39.63;99032.38;5112743;28;20065;-36
2023/04/16 11:53:57;;;;;;;;;;;;;;;23.83;39.30;99015.78;5112910;28;19932;-37
2023/04/16 11:56:30;;;;;;;;;;;;;;;24.54;37.63;99015.88;5112778;28;19942;-37
2023/04/16 11:59:11;;;;;;;;;;;;;;;24.61;38.05;99017.34;5112335;28;19996;-37
2023/04/16 12:01:38;;;;;;;;;;;;;;;24.53;38.02;99013.47;5112697;28;20307;-36
2023/04/16 12:04:03;;;;;;;;;;;;;;;24.16;38.46;99008.16;5112576;28;19912;-36
2023/04/16 12:06:28;;;;;;;;;;;;;;;23.66;39.02;99008.25;5112420;28;20279;-36
2023/04/16 12:08:54;;;;;;;;;;;;;;;23.81;38.76;99007.13;5112752;28;20417;-36
2023/04/16 12:11:19;;;;;;;;;;;;;;;24.24;37.99;99005.78;5112814;28;19911;-37
2023/04/16 12:14:03;;;;;;;;;;;;;;;22.43;41.82;99010.84;5112579;28;19916;-36
2023/04/16 12:16:28;;;;;;;;;;;;;;;21.59;45.33;99015.19;5112591;27;19935;-36
2023/04/16 12:19:01;;;;;;;;;;;;;;;21.08;48.40;99013.19;5112384;28;20367;-35
2023/04/16 12:21:43;;;;;;;;;;;;;;;20.33;51.26;99011.81;5112171;28;19998;-35
2023/04/16 12:24:11;;;;;;;;;;;;;;;19.68;54.51;99015.59;5112622;28;20060;-36
2023/04/16 12:26:37;;;;;;;;;;;;;;;18.99;59.19;99024.63;5112163;28;19980;-36
2023/04/16 12:29:19;;;;;;;;;;;;;;;18.47;61.28;99016.69;5112148;28;20010;-36
2023/04/16 12:31:45;;;;;;;;;;;;;;;18.08;63.50;99027.22;5111800;28;19912;-36
2023/04/16 12:34:10;;;;;;;;;;;;;;;18.27;63.78;99019.41;5111966;28;19919;-38
2023/04/16 12:36:36;;;;;;;;;;;;;;;18.56;62.90;99009.66;5112300;28;19918;-37
2023/04/16 12:39:02;;;;;;;;;;;;;;;18.91;60.78;98999.06;5111821;28;19923;-37
2023/04/16 12:41:27;;;;;;;;;;;;;;;19.80;58.06;98995.56;5111752;28;20096;-36
2023/04/16 12:44:01;;;;;;;;;;;;;;;20.70;56.34;98994.19;5111259;28;19972;-37